sensor_id;sensor_type;location;lat;lon;timestamp;temperature;humidity
37324;DHT22;23205;49.986;18.950;2023-02-02T01:23:33;1.40;99.90
37324;DHT22;23205;49.986;18.950;2023-02-02T01:28:37;1.40;99.90
37324;DHT22;23205;49.986;18.950;2023-02-02T01:33:38;1.50;99.90
37324;DHT22;23205;49.986;18.950;2023-02-02T01:38:39;1.80;99.90
37324;DHT22;23205;49.986;18.950;2023-02-02T01:48:48;0.80;99.90
37324;DHT22;23205;49.986;18.950;2023-02-02T01:53:51;1.20;99.90
37324;DHT22;23205;49.986;18.950;2023-02-02T01:59:02;1.70;99.90
37324;DHT22;23205;49.986;18.950;2023-02-02T02:04:06;1.70;99.90
37324;DHT22;23205;49.986;18.950;2023-02-02T02:09:07;1.70;99.90
37324;DHT22;23205;49.986;18.950;2023-02-02T03:12:57;2.40;99.90
37324;DHT22;23205;49.986;18.950;2023-02-02T03:17:59;2.50;99.90
37324;DHT22;23205;49.986;18.950;2023-02-02T03:23:00;2.50;99.90
37324;DHT22;23205;49.986;18.950;2023-02-02T03:28:04;2.20;99.90
37324;DHT22;23205;49.986;18.950;2023-02-02T03:43:41;2.90;99.90
37324;DHT22;23205;49.986;18.950;2023-02-02T03:48:41;2.90;99.90
37324;DHT22;23205;49.986;18.950;2023-02-02T03:59:13;2.90;99.90
37324;DHT22;23205;49.986;18.950;2023-02-02T04:04:14;2.80;99.90
37324;DHT22;23205;49.986;18.950;2023-02-02T04:36:07;2.40;99.90
37324;DHT22;23205;49.986;18.950;2023-02-02T04:46:31;2.40;99.90
37324;DHT22;23205;49.986;18.950;2023-02-02T04:51:33;2.40;99.90
37324;DHT22;23205;49.986;18.950;2023-02-02T04:56:35;2.40;99.90
37324;DHT22;23205;49.986;18.950;2023-02-02T05:12:19;2.60;99.90
37324;DHT22;23205;49.986;18.950;2023-02-02T05:17:20;2.70;99.90
37324;DHT22;23205;49.986;18.950;2023-02-02T05:22:21;2.60;99.90
37324;DHT22;23205;49.986;18.950;2023-02-02T05:27:22;2.70;99.90
37324;DHT22;23205;49.986;18.950;2023-02-02T05:32:25;2.90;99.90
37324;DHT22;23205;49.986;18.950;2023-02-02T05:37:31;3.10;99.90
37324;DHT22;23205;49.986;18.950;2023-02-02T05:53:12;2.70;99.90
37324;DHT22;23205;49.986;18.950;2023-02-02T05:58:19;1.90;99.90
37324;DHT22;23205;49.986;18.950;2023-02-02T06:08:42;2.80;99.90
37324;DHT22;23205;49.986;18.950;2023-02-02T06:14:12;2.80;99.90
37324;DHT22;23205;49.986;18.950;2023-02-02T06:19:52;2.80;99.90
37324;DHT22;23205;49.986;18.950;2023-02-02T06:24:55;3.10;99.90
37324;DHT22;23205;49.986;18.950;2023-02-02T06:30:00;2.80;99.90
37324;DHT22;23205;49.986;18.950;2023-02-02T06:45:21;2.90;99.90
37324;DHT22;23205;49.986;18.950;2023-02-02T06:50:22;2.80;99.90
37324;DHT22;23205;49.986;18.950;2023-02-02T07:11:16;2.90;99.90
37324;DHT22;23205;49.986;18.950;2023-02-02T07:16:17;2.30;99.90
37324;DHT22;23205;49.986;18.950;2023-02-02T07:26:40;2.70;99.90
37324;DHT22;23205;49.986;18.950;2023-02-02T08:04:15;2.90;99.90
37324;DHT22;23205;49.986;18.950;2023-02-02T08:14:50;2.80;99.90
37324;DHT22;23205;49.986;18.950;2023-02-02T08:19:54;2.80;99.90
37324;DHT22;23205;49.986;18.950;2023-02-02T08:24:55;2.90;99.90
37324;DHT22;23205;49.986;18.950;2023-02-02T08:35:23;3.20;99.90
37324;DHT22;23205;49.986;18.950;2023-02-02T08:40:23;3.30;99.90
37324;DHT22;23205;49.986;18.950;2023-02-02T08:45:31;3.30;99.90
37324;DHT22;23205;49.986;18.950;2023-02-02T08:55:50;3.20;99.90
37324;DHT22;23205;49.986;18.950;2023-02-02T09:11:16;3.30;99.90
37324;DHT22;23205;49.986;18.950;2023-02-02T09:16:27;3.40;99.90
37324;DHT22;23205;49.986;18.950;2023-02-02T09:21:28;3.40;99.90
37324;DHT22;23205;49.986;18.950;2023-02-02T09:26:36;2.80;99.90
37324;DHT22;23205;49.986;18.950;2023-02-02T09:31:50;3.20;99.90
37324;DHT22;23205;49.986;18.950;2023-02-02T09:36:50;3.50;99.90
37324;DHT22;23205;49.986;18.950;2023-02-02T09:57:53;2.90;99.90
37324;DHT22;23205;49.986;18.950;2023-02-02T11:24:38;6.10;99.90
37324;DHT22;23205;49.986;18.950;2023-02-02T12:40:06;6.30;99.90
37324;DHT22;23205;49.986;18.950;2023-02-02T12:55:43;5.40;99.90
37324;DHT22;23205;49.986;18.950;2023-02-02T13:27:05;6.50;99.90
37324;DHT22;23205;49.986;18.950;2023-02-02T14:08:57;6.40;99.90
37324;DHT22;23205;49.986;18.950;2023-02-02T14:39:02;4.70;99.90
37324;DHT22;23205;49.986;18.950;2023-02-02T14:44:04;4.40;99.90
37324;DHT22;23205;49.986;18.950;2023-02-02T14:49:19;4.00;99.90
37324;DHT22;23205;49.986;18.950;2023-02-02T14:54:30;4.40;99.90
37324;DHT22;23205;49.986;18.950;2023-02-02T14:59:39;4.20;99.90
37324;DHT22;23205;49.986;18.950;2023-02-02T15:04:48;4.30;99.90
37324;DHT22;23205;49.986;18.950;2023-02-02T15:10:00;4.30;99.90
37324;DHT22;23205;49.986;18.950;2023-02-02T15:30:53;4.00;99.90
37324;DHT22;23205;49.986;18.950;2023-02-02T15:35:56;4.00;99.90
37324;DHT22;23205;49.986;18.950;2023-02-02T15:41:02;3.90;99.90
37324;DHT22;23205;49.986;18.950;2023-02-02T15:46:04;3.80;99.90
37324;DHT22;23205;49.986;18.950;2023-02-02T15:51:06;3.80;99.90
37324;DHT22;23205;49.986;18.950;2023-02-02T15:56:16;3.80;99.90
37324;DHT22;23205;49.986;18.950;2023-02-02T16:01:19;3.80;99.90
37324;DHT22;23205;49.986;18.950;2023-02-02T16:06:21;3.50;99.90
37324;DHT22;23205;49.986;18.950;2023-02-02T16:11:22;3.30;99.90
37324;DHT22;23205;49.986;18.950;2023-02-02T16:16:26;3.30;99.90
37324;DHT22;23205;49.986;18.950;2023-02-02T16:21:28;2.90;99.90
37324;DHT22;23205;49.986;18.950;2023-02-02T16:26:29;3.40;99.90
37324;DHT22;23205;49.986;18.950;2023-02-02T16:31:30;3.40;99.90
37324;DHT22;23205;49.986;18.950;2023-02-02T16:36:31;3.30;99.90
37324;DHT22;23205;49.986;18.950;2023-02-02T16:41:33;3.40;99.90
37324;DHT22;23205;49.986;18.950;2023-02-02T16:46:41;3.50;99.90
37324;DHT22;23205;49.986;18.950;2023-02-02T16:51:44;3.40;99.90
37324;DHT22;23205;49.986;18.950;2023-02-02T16:56:49;3.10;99.90
37324;DHT22;23205;49.986;18.950;2023-02-02T17:01:51;3.10;99.90
37324;DHT22;23205;49.986;18.950;2023-02-02T17:06:54;3.00;99.90
37324;DHT22;23205;49.986;18.950;2023-02-02T17:11:56;3.10;99.90
37324;DHT22;23205;49.986;18.950;2023-02-02T17:16:57;2.90;99.90
37324;DHT22;23205;49.986;18.950;2023-02-02T17:21:59;2.70;99.90
37324;DHT22;23205;49.986;18.950;2023-02-02T17:27:00;2.70;99.90
37324;DHT22;23205;49.986;18.950;2023-02-02T17:37:18;2.90;99.90
37324;DHT22;23205;49.986;18.950;2023-02-02T17:47:23;2.70;99.90
37324;DHT22;23205;49.986;18.950;2023-02-02T17:52:24;2.50;99.90
37324;DHT22;23205;49.986;18.950;2023-02-02T17:57:29;2.50;99.90
37324;DHT22;23205;49.986;18.950;2023-02-02T18:02:32;2.50;99.90
37324;DHT22;23205;49.986;18.950;2023-02-02T18:07:37;2.30;99.90
37324;DHT22;23205;49.986;18.950;2023-02-02T18:12:40;2.40;99.90
37324;DHT22;23205;49.986;18.950;2023-02-02T18:17:41;2.30;99.90
37324;DHT22;23205;49.986;18.950;2023-02-02T18:22:43;2.70;99.90
37324;DHT22;23205;49.986;18.950;2023-02-02T19:05:41;2.40;99.90
37324;DHT22;23205;49.986;18.950;2023-02-02T19:42:45;2.50;99.90
37324;DHT22;23205;49.986;18.950;2023-02-02T19:52:58;2.40;99.90
37324;DHT22;23205;49.986;18.950;2023-02-02T20:03:21;2.30;99.90
37324;DHT22;23205;49.986;18.950;2023-02-02T20:08:37;2.50;99.90
37324;DHT22;23205;49.986;18.950;2023-02-02T20:13:50;2.60;99.90
37324;DHT22;23205;49.986;18.950;2023-02-02T20:29:50;2.30;99.90
37324;DHT22;23205;49.986;18.950;2023-02-02T20:34:52;2.30;99.90
37324;DHT22;23205;49.986;18.950;2023-02-02T20:39:58;2.20;99.90
37324;DHT22;23205;49.986;18.950;2023-02-02T20:45:27;2.20;99.90
37324;DHT22;23205;49.986;18.950;2023-02-02T20:50:27;1.90;99.90
37324;DHT22;23205;49.986;18.950;2023-02-02T20:55:30;1.80;99.90
37324;DHT22;23205;49.986;18.950;2023-02-02T21:00:35;2.00;99.90
37324;DHT22;23205;49.986;18.950;2023-02-02T21:05:35;1.60;99.90
37324;DHT22;23205;49.986;18.950;2023-02-02T21:10:36;1.80;99.90
37324;DHT22;23205;49.986;18.950;2023-02-02T21:15:37;1.70;99.90
37324;DHT22;23205;49.986;18.950;2023-02-02T21:20:38;1.70;99.90
37324;DHT22;23205;49.986;18.950;2023-02-02T21:25:38;1.40;99.90
37324;DHT22;23205;49.986;18.950;2023-02-02T21:30:39;1.50;99.90
37324;DHT22;23205;49.986;18.950;2023-02-02T21:35:40;1.50;99.90
37324;DHT22;23205;49.986;18.950;2023-02-02T21:40:41;1.30;99.90
37324;DHT22;23205;49.986;18.950;2023-02-02T21:45:51;1.40;99.90
37324;DHT22;23205;49.986;18.950;2023-02-02T21:50:55;0.40;99.90
37324;DHT22;23205;49.986;18.950;2023-02-02T21:55:57;1.40;99.90
37324;DHT22;23205;49.986;18.950;2023-02-02T22:16:20;1.00;99.90
37324;DHT22;23205;49.986;18.950;2023-02-02T22:21:21;1.60;99.90
37324;DHT22;23205;49.986;18.950;2023-02-02T22:31:28;1.30;99.90
37324;DHT22;23205;49.986;18.950;2023-02-02T22:36:29;1.60;99.90
37324;DHT22;23205;49.986;18.950;2023-02-02T22:41:30;1.60;99.90
37324;DHT22;23205;49.986;18.950;2023-02-02T22:46:30;1.50;99.90
37324;DHT22;23205;49.986;18.950;2023-02-02T22:51:31;1.40;99.90
37324;DHT22;23205;49.986;18.950;2023-02-02T22:56:35;1.50;99.90
37324;DHT22;23205;49.986;18.950;2023-02-02T23:01:40;1.20;99.90
37324;DHT22;23205;49.986;18.950;2023-02-02T23:11:52;1.10;99.90
37324;DHT22;23205;49.986;18.950;2023-02-02T23:16:55;0.50;99.90
37324;DHT22;23205;49.986;18.950;2023-02-02T23:27:10;1.00;99.90
37324;DHT22;23205;49.986;18.950;2023-02-02T23:43:16;1.10;99.90
37324;DHT22;23205;49.986;18.950;2023-02-02T23:48:28;1.10;99.90
37324;DHT22;23205;49.986;18.950;2023-02-02T23:53:28;0.90;99.90
37324;DHT22;23205;49.986;18.950;2023-02-02T23:58:29;1.30;99.90
